METAR AND TAF INFORMATION
METAR FOR LIPQ
ADDS - METARS form results

(0948 UTC 19 August 2019)
Data provider http://aviationweather.gov/metar/data/
 
METAR text: LIPQ 190920Z 19004KT 110V270 CAVOK 29/16 Q1016
Conditions at: LIPQ (RONCHI LEGIONARI, IT) observed 0920 UTC 19 August 2019
Temperature: 29.0°C (84°F)
Dewpoint: 16.0°C (61°F) [RH = 45%]
Pressure (altimeter): 30.00 inches Hg (1016.0 mb)
Winds: from the S (190 degrees) at 5 MPH (4 knots; 2.1 m/s)
Visibility: 6 or more miles (10+ km)
Ceiling: ceiling and visibility are OK
Clouds: unknown
Weather: no significant weather observed at this time

METAR text: LIPQ 190850Z VRB02KT CAVOK 29/16 Q1016
Conditions at: LIPQ (RONCHI LEGIONARI, IT) observed 0850 UTC 19 August 2019
Temperature: 29.0°C (84°F)
Dewpoint: 16.0°C (61°F) [RH = 45%]
Pressure (altimeter): 30.00 inches Hg (1016.0 mb)
Winds: variable direction winds at 2 MPH (2 knots; 1.0 m/s)
Visibility: 6 or more miles (10+ km)
Ceiling: ceiling and visibility are OK
Clouds: unknown
Weather: no significant weather observed at this time

Forecast for: LIPQ (RONCHI LEGIONARI, IT)
Text: TAF LIPQ 190500Z 1906/2006 VRB04KT 9999 SCT030
Forecast period: 0600 UTC 19 August 2019 to 0600 UTC 20 August 2019
Forecast type: FROM: standard forecast or significant change
Winds: variable direction winds at 5 MPH (4 knots; 2.1 m/s)
Visibility: 6 or more miles 10+ km)
Ceiling: at least 12,000 feet AGL
Clouds: scattered clouds at 3000 feet AGL
Weather: no significant weather forecast for this period

 AIRPORT MAP

 RUNWAY INFORMATION
Runway 09 Runway length 9843 ft Runway width 148 ft
Runway elevation 37 ft Runway displaced threshold 656 ft Runway heading 90
Runway 27 Runway length 9843 ft Runway width 148 ft
Runway elevation 36 ft Runway displaced threshold 0 ft Runway heading 270

 AIRPORT FREQUENCIES
Type APP Name APP Frequency 119.175 MHZ
Type TWR Name TWR Frequency 130.2 MHZ

 AIRPORT NEAR NAVIGATION AIDS
Type VOR-DME Name Ronchi Frequency 114200 KHZ
Type NDB Name Ronchi Frequency 396 KHZ